Time;durP1;ratioP1;P1;durP2;ratioP2;P2;SDS_P1;SDS_P2;PMS_P1;PMS_P2;Temp;Humidity;BMP_temperature;BMP_pressure;BME280_temperature;BME280_humidity;BME280_pressure;Samples;Min_cycle;Max_cycle;Signal;HPM_P1;HPM_P2
2022/09/19 00:01:37;;;;;;;2.88;1.40;;;11.80;99.90;;;;;;4939049;29;20377;-52
2022/09/19 00:04:14;;;;;;;3.15;1.50;;;11.80;99.90;;;;;;4939267;29;20375;-53
2022/09/19 00:06:41;;;;;;;1.90;1.27;;;11.60;99.90;;;;;;4939460;29;20048;-56
2022/09/19 00:09:09;;;;;;;2.40;1.40;;;;;;;;;;4921368;29;20063;-54
2022/09/19 00:11:38;;;;;;;2.30;1.52;;;11.50;99.90;;;;;;4938745;29;20039;-55
2022/09/19 00:14:04;;;;;;;2.83;1.40;;;11.50;99.90;;;;;;4939085;29;20035;-48
2022/09/19 00:16:36;;;;;;;1.63;1.35;;;11.50;99.90;;;;;;4921225;29;20508;-54
2022/09/19 00:19:04;;;;;;;2.60;1.40;;;11.60;99.90;;;;;;4939157;29;20103;-55
2022/09/19 00:21:38;;;;;;;1.73;1.30;;;11.60;99.90;;;;;;4938880;29;20036;-55
2022/09/19 00:26:50;;;;;;;2.47;1.27;;;11.60;99.90;;;;;;4938956;29;20526;-54
2022/09/19 00:29:17;;;;;;;2.15;1.55;;;11.40;99.90;;;;;;4938551;29;20035;-52
2022/09/19 00:31:44;;;;;;;1.85;1.00;;;11.20;99.90;;;;;;4938647;29;20055;-52
2022/09/19 00:34:12;;;;;;;1.52;1.00;;;11.10;99.90;;;;;;4938751;29;20055;-55
2022/09/19 00:36:39;;;;;;;1.05;0.82;;;10.90;99.90;;;;;;4938301;29;20020;-51
2022/09/19 00:39:06;;;;;;;1.80;1.10;;;10.90;99.90;;;;;;4938396;29;20432;-53
2022/09/19 00:41:33;;;;;;;1.67;1.10;;;10.80;99.90;;;;;;4939271;29;20027;-48
2022/09/19 00:44:05;;;;;;;2.40;1.35;;;10.70;99.90;;;;;;4938204;29;20416;-49
2022/09/19 00:46:33;;;;;;;4.28;1.35;;;10.70;99.90;;;;;;4935874;29;20562;-51
2022/09/19 00:49:05;;;;;;;1.50;1.10;;;10.80;99.90;;;;;;4938619;29;20064;-51
2022/09/19 00:51:35;;;;;;;2.92;1.15;;;10.80;99.90;;;;;;4938448;29;20046;-49
2022/09/19 00:54:11;;;;;;;3.92;1.23;;;10.70;99.90;;;;;;4938160;29;20114;-51
2022/09/19 00:56:44;;;;;;;1.23;0.90;;;10.70;99.90;;;;;;4938400;29;20502;-53
2022/09/19 00:59:11;;;;;;;88.15;60.35;;;10.60;99.90;;;;;;4937540;29;20099;-52
2022/09/19 01:01:38;;;;;;;1.95;1.00;;;10.60;99.90;;;;;;4920247;29;20059;-52
2022/09/19 01:04:17;;;;;;;3.25;1.08;;;10.60;99.90;;;;;;4904825;29;20040;-52
2022/09/19 01:07:04;;;;;;;3.00;0.80;;;10.70;99.90;;;;;;4937722;29;20098;-52
2022/09/19 01:09:57;;;;;;;1.52;0.85;;;10.70;99.90;;;;;;4938322;29;20032;-50
2022/09/19 01:12:46;;;;;;;4.00;1.15;;;10.70;99.90;;;;;;4938145;29;20036;-53
2022/09/19 01:15:26;;;;;;;82.22;45.47;;;10.80;99.90;;;;;;4937757;29;20082;-53
2022/09/19 01:18:01;;;;;;;204.88;183.50;;;10.90;99.90;;;;;;4937856;29;20036;-49
2022/09/19 01:21:37;;;;;;;35.22;22.33;;;11.00;99.90;;;;;;4938084;29;20031;-53
2022/09/19 01:24:03;;;;;;;1.52;1.35;;;11.10;99.90;;;;;;4937524;29;20400;-52
2022/09/19 01:26:48;;;;;;;1.85;1.00;;;11.20;99.90;;;;;;4937680;29;20035;-53
2022/09/19 01:29:20;;;;;;;1.20;0.90;;;11.20;99.90;;;;;;4937624;29;20040;-51
2022/09/19 01:31:50;;;;;;;1.15;0.82;;;11.30;99.90;;;;;;4937044;29;20514;-51
2022/09/19 01:34:19;;;;;;;4.63;0.95;;;11.30;99.90;;;;;;4937407;29;20035;-53
2022/09/19 01:36:50;;;;;;;1.98;0.90;;;11.30;99.90;;;;;;4937424;29;20039;-53
2022/09/19 01:39:21;;;;;;;2.22;0.90;;;11.50;99.90;;;;;;4937548;29;20031;-50
2022/09/19 01:41:51;;;;;;;2.35;0.98;;;11.70;99.90;;;;;;4937162;29;20174;-50
2022/09/19 01:44:20;;;;;;;2.47;1.10;;;11.80;99.90;;;;;;4919702;29;20055;-50
2022/09/19 01:47:09;;;;;;;2.85;0.75;;;11.60;99.90;;;;;;4937323;29;20032;-53
2022/09/19 01:49:41;;;;;;;1.67;0.80;;;11.30;99.90;;;;;;4937020;29;20480;-52
2022/09/19 01:52:35;;;;;;;1.58;0.98;;;11.20;99.90;;;;;;4937211;29;20136;-52
2022/09/19 01:55:15;;;;;;;1.25;0.80;;;11.10;99.90;;;;;;4903574;29;20067;-49
2022/09/19 01:57:41;;;;;;;1.02;0.70;;;11.10;99.90;;;;;;4919512;29;20035;-52
2022/09/19 02:00:22;;;;;;;4.00;1.10;;;11.20;99.90;;;;;;4937355;29;20531;-48
2022/09/19 02:02:57;;;;;;;1.20;0.90;;;11.40;99.90;;;;;;4936791;29;20036;-52
2022/09/19 02:05:35;;;;;;;1.63;0.90;;;11.40;99.90;;;;;;4936961;29;20036;-53
2022/09/19 02:08:28;;;;;;;1.48;0.75;;;11.30;99.90;;;;;;4936812;29;20035;-51
2022/09/19 02:11:17;;;;;;;1.83;1.02;;;11.40;99.90;;;;;;4936359;29;20048;-52
2022/09/19 02:13:48;;;;;;;2.00;1.20;;;11.60;99.90;;;;;;4878081;29;20033;-50
2022/09/19 02:16:36;;;;;;;4.28;1.20;;;11.70;99.90;;;;;;4878212;29;20097;-52
2022/09/19 02:19:17;;;;;;;2.47;1.20;;;11.80;99.90;;;;;;4878269;29;20037;-53
2022/09/19 02:21:52;;;;;;;1.83;1.10;;;11.90;99.90;;;;;;4878064;29;20040;-49
2022/09/19 02:24:26;;;;;;;2.92;1.10;;;11.90;99.90;;;;;;4877848;29;20359;-49
2022/09/19 02:26:54;;;;;;;2.47;1.52;;;11.80;99.90;;;;;;4877919;29;20068;-47
2022/09/19 02:29:28;;;;;;;2.88;1.73;;;11.60;99.90;;;;;;4877969;29;20499;-52
2022/09/19 02:31:55;;;;;;;2.97;1.67;;;11.40;99.90;;;;;;4877469;29;20140;-52
2022/09/19 02:34:22;;;;;;;3.38;1.95;;;11.20;99.90;;;;;;4877844;29;20037;-54
2022/09/19 02:37:01;;;;;;;5.25;2.30;;;11.30;99.90;;;;;;4862294;29;20115;-50
2022/09/19 02:39:38;;;;;;;4.15;2.05;;;11.40;99.90;;;;;;4877980;29;20031;-53
2022/09/19 02:43:03;;;;;;;3.47;2.42;;;11.50;99.90;;;;;;4846602;29;20045;-50
2022/09/19 02:45:51;;;;;;;4.05;2.47;;;11.40;99.90;;;;;;4840709;29;20054;-53
2022/09/19 02:48:28;;;;;;;3.35;2.15;;;11.20;99.90;;;;;;4840525;29;20030;-52
2022/09/19 02:51:09;;;;;;;5.05;2.40;;;11.10;99.90;;;;;;4861164;29;20581;-50
2022/09/19 02:53:42;;;;;;;4.60;2.38;;;11.30;99.90;;;;;;4877752;29;20402;-49
2022/09/19 02:56:13;;;;;;;3.63;2.42;;;11.40;99.90;;;;;;4877429;29;20048;-49
2022/09/19 02:58:50;;;;;;;5.47;2.03;;;11.50;99.90;;;;;;4877583;29;20037;-55
2022/09/19 03:01:23;;;;;;;4.90;2.50;;;11.60;99.90;;;;;;4877393;29;20040;-52
2022/09/19 03:04:12;;;;;;;4.40;2.65;;;11.60;99.90;;;;;;4877268;29;20041;-52
2022/09/19 03:06:57;;;;;;;3.67;2.65;;;11.50;99.90;;;;;;4877488;29;20033;-52
2022/09/19 03:09:27;;;;;;;4.40;2.42;;;11.60;99.90;;;;;;4877211;29;20037;-52
2022/09/19 03:12:18;;;;;;;5.38;2.45;;;11.50;99.90;;;;;;4877188;29;20040;-53
2022/09/19 03:14:46;;;;;;;3.80;2.20;;;11.40;99.90;;;;;;4877118;29;20490;-52
2022/09/19 03:17:18;;;;;;;4.47;2.47;;;11.30;99.90;;;;;;4930489;29;20040;-51
2022/09/19 03:19:51;;;;;;;5.25;2.40;;;11.30;99.90;;;;;;4935772;29;20115;-52
2022/09/19 03:22:17;;;;;;;3.88;2.72;;;11.10;99.90;;;;;;4936607;29;20032;-53
2022/09/19 03:24:45;;;;;;;4.13;2.80;;;10.90;99.90;;;;;;4906103;29;20424;-56
2022/09/19 03:27:14;;;;;;;5.82;2.72;;;10.70;99.90;;;;;;4906306;29;20046;-52
2022/09/19 03:29:40;;;;;;;6.63;3.70;;;10.70;99.90;;;;;;4939819;29;20087;-53
2022/09/19 03:32:06;;;;;;;7.03;4.05;;;10.70;99.90;;;;;;4906144;29;20051;-47
2022/09/19 03:34:32;;;;;;;5.60;3.78;;;10.60;99.90;;;;;;4906190;29;20046;-50
2022/09/19 03:36:59;;;;;;;5.75;3.50;;;10.50;99.90;;;;;;4906378;29;20051;-51
2022/09/19 03:39:25;;;;;;;5.43;3.45;;;10.50;99.90;;;;;;4945105;29;20085;-49
2022/09/19 03:41:51;;;;;;;6.38;3.78;;;10.50;99.90;;;;;;4925075;29;20035;-51
2022/09/19 03:44:19;;;;;;;9.32;4.13;;;10.50;99.90;;;;;;4908774;29;20035;-55
2022/09/19 03:46:46;;;;;;;8.13;3.63;;;10.50;99.90;;;;;;4958447;29;20166;-53
2022/09/19 03:49:13;;;;;;;7.72;4.10;;;10.60;99.90;;;;;;4958991;29;20423;-49
2022/09/19 03:51:39;;;;;;;5.38;3.75;;;10.60;99.90;;;;;;4958346;29;20130;-49
2022/09/19 03:54:05;;;;;;;8.52;4.00;;;10.60;99.90;;;;;;4958414;29;20031;-49
2022/09/19 03:56:32;;;;;;;5.50;3.80;;;10.70;99.90;;;;;;4958200;29;20538;-51
2022/09/19 03:58:58;;;;;;;6.15;3.90;;;10.70;99.90;;;;;;4908858;29;20092;-48
2022/09/19 04:01:24;;;;;;;5.72;3.63;;;10.90;99.90;;;;;;4958282;29;20043;-53
2022/09/19 04:03:50;;;;;;;4.97;3.50;;;10.70;99.90;;;;;;4958225;29;20078;-53
2022/09/19 04:06:17;;;;;;;6.88;4.38;;;10.60;99.90;;;;;;4932894;28;20039;-51
2022/09/19 04:08:49;;;;;;;4.72;3.70;;;10.70;99.90;;;;;;4962564;28;20031;-56
2022/09/19 04:11:14;;;;;;;8.10;3.90;;;10.60;99.90;;;;;;4906880;29;20553;-51
2022/09/19 04:13:42;;;;;;;4.47;3.42;;;10.70;99.90;;;;;;4957938;29;20047;-55
2022/09/19 04:16:09;;;;;;;4.88;3.75;;;10.40;99.90;;;;;;4932864;29;20432;-55
2022/09/19 04:18:35;;;;;;;4.90;3.95;;;10.10;99.90;;;;;;4958482;29;20035;-53
2022/09/19 04:21:00;;;;;;;5.20;3.97;;;9.90;99.90;;;;;;4957044;29;20063;-52
2022/09/19 04:23:26;;;;;;;8.82;4.15;;;9.70;99.90;;;;;;4956156;28;20020;-48
2022/09/19 04:25:52;;;;;;;5.18;4.30;;;9.50;99.90;;;;;;4957614;29;20027;-49
2022/09/19 04:28:18;;;;;;;5.15;4.10;;;9.40;99.90;;;;;;4956716;28;20047;-52
2022/09/19 04:30:44;;;;;;;7.80;4.97;;;9.60;99.90;;;;;;4957708;29;20039;-47
2022/09/19 04:33:13;;;;;;;5.72;4.25;;;9.80;99.90;;;;;;4940504;29;20102;-50
2022/09/19 04:35:39;;;;;;;8.07;5.40;;;9.90;99.90;;;;;;4937762;29;20028;-48
2022/09/19 04:38:06;;;;;;;5.93;4.32;;;10.20;99.90;;;;;;4938559;29;20368;-51
2022/09/19 04:40:44;;;;;;;9.73;5.00;;;10.40;99.90;;;;;;4938263;29;20023;-53
2022/09/19 04:43:12;;;;;;;7.88;5.07;;;10.60;99.90;;;;;;4938570;29;20086;-52
2022/09/19 04:45:39;;;;;;;6.47;4.80;;;10.80;99.90;;;;;;4938120;29;20495;-54
2022/09/19 04:48:06;;;;;;;7.63;5.40;;;10.90;99.90;;;;;;4941869;28;20035;-52
2022/09/19 04:50:33;;;;;;;8.35;5.15;;;10.90;99.90;;;;;;4956564;28;20058;-52
2022/09/19 04:52:59;;;;;;;11.63;5.53;;;10.90;99.90;;;;;;4956950;28;20031;-51
2022/09/19 04:55:25;;;;;;;8.20;5.90;;;11.20;99.90;;;;;;4954316;29;20027;-49
2022/09/19 04:57:51;;;;;;;6.68;4.90;;;11.40;99.90;;;;;;4957140;29;20483;-49
2022/09/19 05:00:36;;;;;;;5.72;4.90;;;11.50;99.90;;;;;;4957142;29;20106;-49
2022/09/19 05:03:07;;;;;;;10.38;4.95;;;11.00;99.90;;;;;;4957005;28;20399;-50
2022/09/19 05:05:34;;;;;;;9.82;4.30;;;10.70;99.90;;;;;;4946640;29;20036;-52
2022/09/19 05:08:00;;;;;;;7.00;4.60;;;10.50;99.90;;;;;;4938317;29;20030;-48
2022/09/19 05:10:26;;;;;;;6.00;4.05;;;10.30;99.90;;;;;;4920370;29;20119;-52
2022/09/19 05:12:52;;;;;;;10.90;4.00;;;10.30;99.90;;;;;;4937672;29;20042;-50
2022/09/19 05:15:18;;;;;;;8.02;4.15;;;10.30;99.90;;;;;;4937751;29;20074;-52
2022/09/19 05:17:43;;;;;;;6.82;4.25;;;10.40;99.90;;;;;;4940015;28;20055;-53
2022/09/19 05:20:09;;;;;;;6.95;4.43;;;10.50;99.90;;;;;;4916267;29;20556;-50
2022/09/19 05:22:35;;;;;;;6.05;4.50;;;10.60;99.90;;;;;;4945131;28;20031;-53
2022/09/19 05:25:04;;;;;;;7.97;3.85;;;11.10;99.90;;;;;;4891247;29;20039;-49
2022/09/19 05:27:36;;;;;;;4.95;3.78;;;11.20;99.90;;;;;;4956984;29;20086;-50
2022/09/19 05:30:03;;;;;;;6.63;3.95;;;11.10;99.90;;;;;;4956631;29;20041;-51
2022/09/19 05:32:29;;;;;;;8.07;4.15;;;11.10;99.90;;;;;;4922917;29;20369;-52
2022/09/19 05:34:56;;;;;;;7.38;3.75;;;11.30;99.90;;;;;;4956779;29;20034;-50
2022/09/19 05:37:23;;;;;;;4.68;3.42;;;11.70;99.90;;;;;;4955108;28;20499;-50
2022/09/19 05:39:49;;;;;;;6.05;3.47;;;11.50;99.90;;;;;;4956161;29;20086;-50
2022/09/19 05:42:15;;;;;;;5.95;2.90;;;11.30;99.90;;;;;;4923179;29;20387;-50
2022/09/19 05:44:41;;;;;;;5.13;3.15;;;11.10;99.90;;;;;;4955624;28;20073;-51
2022/09/19 05:47:06;;;;;;;6.65;4.25;;;11.10;99.90;;;;;;4956557;28;20114;-50
2022/09/19 05:49:32;;;;;;;10.40;5.90;;;11.30;99.90;;;;;;4956206;29;20027;-50
2022/09/19 05:53:51;;;;;;;10.68;6.28;;;11.50;99.90;;;;;;4956363;29;20130;-50
2022/09/19 05:54:44;;;;;;;6.68;4.63;;;11.90;99.90;;;;;;4928178;29;20082;-52
2022/09/19 05:57:10;;;;;;;7.18;4.50;;;12.00;99.90;;;;;;4922949;29;20039;-51
2022/09/19 05:59:35;;;;;;;4.95;3.92;;;12.10;99.90;;;;;;4956532;29;20390;-51
2022/09/19 06:02:01;;;;;;;5.82;4.05;;;12.40;99.90;;;;;;4922508;29;20035;-51
2022/09/19 06:04:27;;;;;;;6.28;3.80;;;12.60;99.90;;;;;;4956015;29;20037;-51
2022/09/19 06:06:52;;;;;;;6.72;4.03;;;12.70;99.90;;;;;;4956088;29;20350;-51
2022/09/19 06:09:18;;;;;;;4.85;3.60;;;12.90;99.90;;;;;;4956167;29;20034;-51
2022/09/19 06:11:44;;;;;;;4.53;3.33;;;13.00;99.90;;;;;;4956199;29;20055;-52
2022/09/19 06:14:17;;;;;;;6.38;3.45;;;13.00;99.90;;;;;;4922154;29;20039;-51
2022/09/19 06:16:43;;;;;;;9.27;3.90;;;13.10;99.90;;;;;;4924417;29;20547;-52
2022/09/19 06:19:09;;;;;;;5.15;3.70;;;13.20;99.90;;;;;;4959594;28;20062;-51
2022/09/19 06:21:35;;;;;;;8.48;4.10;;;13.30;99.90;;;;;;4963248;28;20352;-51
2022/09/19 06:24:07;;;;;;;7.75;3.50;;;13.40;99.90;;;;;;4944919;29;20058;-51
2022/09/19 06:26:33;;;;;;;;;;;13.50;99.90;;;;;;4928788;29;20043;-52
2022/09/19 06:29:01;;;;;;;9.38;3.70;;;;;;;;;;4957856;28;20412;-51
2022/09/19 06:31:27;;;;;;;7.47;3.70;;;13.60;99.90;;;;;;4903144;28;20040;-51
2022/09/19 06:33:53;;;;;;;9.60;3.90;;;13.50;99.90;;;;;;4956473;28;20486;-51
2022/09/19 06:36:19;;;;;;;10.80;5.63;;;13.50;99.90;;;;;;4957570;28;20026;-51
2022/09/19 06:38:45;;;;;;;7.10;4.28;;;13.40;99.90;;;;;;4944899;28;20110;-51
2022/09/19 06:41:11;;;;;;;8.73;3.90;;;13.40;99.90;;;;;;4964604;28;20031;-50
2022/09/19 06:43:37;;;;;;;7.28;4.22;;;13.50;99.90;;;;;;4964137;28;20027;-50
2022/09/19 06:46:04;;;;;;;7.97;4.95;;;13.20;99.90;;;;;;4912639;29;20035;-51
2022/09/19 06:48:30;;;;;;;5.13;4.07;;;13.10;99.90;;;;;;4934526;29;20031;-51
2022/09/19 06:50:56;;;;;;;8.60;4.07;;;13.20;99.90;;;;;;4906153;29;20110;-51
2022/09/19 06:53:22;;;;;;;12.20;5.22;;;13.20;99.90;;;;;;4955606;29;20034;-51
2022/09/19 06:55:48;;;;;;;7.03;4.47;;;13.30;99.90;;;;;;4955544;29;20043;-51
2022/09/19 06:58:15;;;;;;;8.75;4.35;;;13.20;99.90;;;;;;4954686;28;20034;-51
2022/09/19 07:00:43;;;;;;;9.65;3.90;;;13.00;99.90;;;;;;4955541;29;20038;-51
2022/09/19 07:03:12;;;;;;;14.20;5.03;;;13.30;99.90;;;;;;4955474;29;20043;-50
2022/09/19 07:05:40;;;;;;;6.07;4.40;;;13.30;99.90;;;;;;4955106;29;20414;-51
2022/09/19 07:08:06;;;;;;;5.35;4.57;;;13.40;99.90;;;;;;4954914;29;20031;-51
2022/09/19 07:10:36;;;;;;;8.32;6.55;;;13.50;99.90;;;;;;4937943;29;20043;-51
2022/09/19 07:13:04;;;;;;;8.82;6.63;;;13.60;99.90;;;;;;4955003;29;20058;-51
2022/09/19 07:15:32;;;;;;;8.32;6.15;;;13.60;99.90;;;;;;4955346;29;20047;-51
2022/09/19 07:17:58;;;;;;;8.30;6.43;;;13.70;99.90;;;;;;4954986;29;20089;-51
2022/09/19 07:20:26;;;;;;;10.73;5.80;;;13.70;99.90;;;;;;4955294;29;20027;-51
2022/09/19 07:23:01;;;;;;;8.85;4.65;;;13.90;99.90;;;;;;4952264;29;20086;-51
2022/09/19 07:25:28;;;;;;;8.27;5.50;;;14.00;99.90;;;;;;4937134;29;20050;-51
2022/09/19 07:27:56;;;;;;;26.33;6.15;;;13.90;99.90;;;;;;4954970;29;20035;-51
2022/09/19 07:30:21;;;;;;;7.75;4.40;;;14.10;99.90;;;;;;4920929;29;20059;-51
2022/09/19 07:32:47;;;;;;;4.65;4.13;;;14.20;99.90;;;;;;4954961;29;20403;-51
2022/09/19 07:35:13;;;;;;;5.85;4.47;;;14.30;99.90;;;;;;4953963;28;20086;-51
2022/09/19 07:37:39;;;;;;;6.72;4.35;;;14.30;99.90;;;;;;4905253;29;20098;-51
2022/09/19 07:53:25;;;;;;;9.60;5.93;;;15.20;99.90;;;;;;5104108;27;20922;-51
2022/09/19 07:55:53;;;;;;;11.73;6.18;;;15.00;99.90;;;;;;5092009;28;20080;-51
2022/09/19 07:58:20;;;;;;;11.68;6.15;;;15.10;99.90;;;;;;5069376;28;20029;-49
2022/09/19 08:00:46;;;;;;;11.38;6.53;;;15.30;99.90;;;;;;5089710;28;20024;-49
2022/09/19 08:03:15;;;;;;;12.32;7.13;;;15.30;99.90;;;;;;5091016;28;20021;-50
2022/09/19 08:05:46;;;;;;;14.85;9.48;;;15.00;99.90;;;;;;5090611;28;20035;-49
2022/09/19 08:08:14;;;;;;;6.50;4.25;;;14.60;99.90;;;;;;5092582;28;20067;-50
2022/09/19 08:10:41;;;;;;;11.38;5.45;;;13.90;99.90;;;;;;5087257;28;20128;-50
2022/09/19 08:13:08;;;;;;;8.13;5.88;;;13.80;99.90;;;;;;5091195;28;20119;-51
2022/09/19 08:15:35;;;;;;;8.52;4.43;;;13.90;99.90;;;;;;5091923;28;20503;-51
2022/09/19 08:18:03;;;;;;;5.43;3.90;;;13.90;99.90;;;;;;5090489;28;20036;-51
2022/09/19 08:20:31;;;;;;;10.40;3.65;;;14.00;99.90;;;;;;5088328;28;20479;-52
2022/09/19 08:22:59;;;;;;;5.97;3.70;;;14.00;99.90;;;;;;5052661;28;20042;-52
2022/09/19 08:25:26;;;;;;;5.22;3.60;;;14.00;99.90;;;;;;5055774;28;20120;-52
2022/09/19 08:27:53;;;;;;;5.25;3.85;;;14.00;99.90;;;;;;5059602;28;20490;-52
2022/09/19 08:30:19;;;;;;;6.78;3.85;;;13.90;99.90;;;;;;5059591;28;20033;-51
2022/09/19 08:32:46;;;;;;;5.70;4.03;;;14.10;99.90;;;;;;5056316;28;20025;-51
2022/09/19 08:35:14;;;;;;;5.72;3.65;;;14.50;99.90;;;;;;5059985;28;20037;-52
2022/09/19 08:37:39;;;;;;;2.90;2.20;;;14.60;99.90;;;;;;5043995;28;20037;-51
2022/09/19 08:40:19;;;;;;;3.67;2.88;;;14.40;99.90;;;;;;5051718;28;20025;-52
2022/09/19 08:43:21;;;;;;;5.82;3.35;;;14.50;99.90;;;;;;5019718;28;20049;-51
2022/09/19 08:46:15;;;;;;;3.92;2.47;;;14.40;99.90;;;;;;5025643;28;20094;-50
2022/09/19 08:49:01;;;;;;;2.95;2.00;;;14.10;99.90;;;;;;5059639;28;20128;-53
2022/09/19 08:51:32;;;;;;;5.70;2.15;;;13.90;99.90;;;;;;5063990;28;20377;-50
2022/09/19 08:59:14;;;;;;;4.30;2.63;;;13.50;99.90;;;;;;5766680;22;20447;-50
2022/09/19 09:01:41;;;;;;;2.42;1.33;;;13.50;99.90;;;;;;5046192;28;20096;-48
2022/09/19 09:04:25;;;;;;;2.03;1.40;;;13.30;99.90;;;;;;5034657;28;20033;-51
2022/09/19 09:06:54;;;;;;;2.60;1.80;;;13.30;99.90;;;;;;5045453;28;20041;-46
2022/09/19 09:09:32;;;;;;;3.25;1.98;;;13.20;99.90;;;;;;5033812;28;20200;-50
2022/09/19 09:12:31;;;;;;;3.60;1.85;;;13.30;99.90;;;;;;5031737;28;20029;-51
2022/09/19 09:15:17;;;;;;;3.47;1.75;;;13.20;99.90;;;;;;5030728;28;20059;-51
2022/09/19 09:18:01;;;;;;;2.47;1.73;;;13.10;99.90;;;;;;5033590;28;20139;-51
2022/09/19 09:20:41;;;;;;;3.05;1.10;;;12.90;99.90;;;;;;5001446;28;20064;-58
2022/09/19 09:23:15;;;;;;;2.92;1.80;;;12.90;99.90;;;;;;5034349;28;20380;-59
2022/09/19 09:25:48;;;;;;;3.03;1.75;;;12.70;99.90;;;;;;4950666;28;20041;-52
2022/09/19 09:28:30;;;;;;;3.10;1.65;;;12.70;99.90;;;;;;5033038;28;20026;-55
2022/09/19 09:31:11;;;;;;;3.58;2.08;;;12.70;99.90;;;;;;5032232;28;20411;-51
2022/09/19 09:33:54;;;;;;;6.78;2.40;;;12.60;99.90;;;;;;5033453;28;20045;-48
2022/09/19 09:36:26;;;;;;;3.08;1.60;;;12.70;99.90;;;;;;5033469;28;20116;-52
2022/09/19 09:39:02;;;;;;;;;;;12.70;99.90;;;;;;5032306;28;20116;-51
2022/09/19 09:41:50;;;;;;;3.90;2.08;;;12.70;99.90;;;;;;5033756;28;20292;-50
2022/09/19 09:44:23;;;;;;;4.57;2.25;;;12.80;99.90;;;;;;5034161;28;20056;-48
2022/09/19 09:47:21;;;;;;;3.10;2.30;;;12.80;99.90;;;;;;5032471;28;20469;-52
2022/09/19 09:49:50;;;;;;;3.63;2.40;;;12.90;99.90;;;;;;4933872;29;20043;-52
2022/09/19 09:52:45;;;;;;;7.18;2.78;;;13.00;99.90;;;;;;4934862;29;20032;-50
2022/09/19 09:58:31;;;;;;;5.85;3.00;;;12.90;99.90;;;;;;4933428;29;20050;-50
2022/09/19 10:04:28;;;;;;;6.03;3.30;;;12.80;99.90;;;;;;4934486;29;20071;-51
2022/09/19 10:07:10;;;;;;;9.02;4.05;;;13.00;99.90;;;;;;4934206;29;20042;-51
2022/09/19 10:09:42;;;;;;;3.78;2.10;;;13.10;99.90;;;;;;4934479;29;20369;-51
2022/09/19 10:12:22;;;;;;;;;;;13.20;99.90;;;;;;4934459;29;20115;-52
2022/09/19 10:14:49;;;;;;;5.07;2.42;;;13.20;99.90;;;;;;4915525;29;20587;-50
2022/09/19 10:30:36;;;;;;;2.40;1.20;;;13.20;99.90;;;;;;5102163;27;20432;-50
2022/09/19 10:33:45;;;;;;;2.13;1.40;;;13.20;99.90;;;;;;5081193;28;20386;-51
2022/09/19 10:36:21;;;;;;;1.58;1.02;;;13.10;99.90;;;;;;5026961;28;20041;-50
2022/09/19 10:38:54;;;;;;;2.78;1.52;;;13.10;99.90;;;;;;5024680;28;20033;-51
2022/09/19 10:41:22;;;;;;;1.85;1.17;;;13.00;99.90;;;;;;5025610;28;20033;-52
2022/09/19 10:43:57;;;;;;;1.98;1.10;;;13.10;99.90;;;;;;5025021;28;20198;-51
2022/09/19 10:46:35;;;;;;;1.30;0.93;;;12.90;99.90;;;;;;5024215;28;20037;-50
2022/09/19 10:49:05;;;;;;;1.10;0.93;;;12.80;99.90;;;;;;5026156;28;20077;-51
2022/09/19 10:51:33;;;;;;;1.83;1.33;;;12.80;99.90;;;;;;5022173;28;20033;-51
2022/09/19 10:54:11;;;;;;;3.95;2.45;;;12.90;99.90;;;;;;5027070;28;20366;-51
2022/09/19 10:56:39;;;;;;;2.00;1.40;;;13.40;99.90;;;;;;5025448;28;20068;-51
2022/09/19 10:59:12;;;;;;;4.18;2.10;;;13.40;99.90;;;;;;5024700;28;20050;-51
2022/09/19 11:01:39;;;;;;;2.15;1.48;;;13.60;99.90;;;;;;5020585;28;20046;-52
2022/09/19 11:04:22;;;;;;;1.33;1.10;;;13.70;99.90;;;;;;5023303;28;20112;-51
2022/09/19 11:07:00;;;;;;;3.63;2.38;;;13.90;99.90;;;;;;5019345;28;20069;-53
2022/09/19 11:09:34;;;;;;;1.70;1.08;;;14.20;99.90;;;;;;5019965;28;20512;-52
2022/09/19 11:12:12;;;;;;;1.13;0.82;;;14.40;99.90;;;;;;5035798;28;20043;-52
2022/09/19 11:14:48;;;;;;;1.02;0.88;;;14.70;99.90;;;;;;5058331;28;20047;-51
2022/09/19 11:17:22;;;;;;;0.50;0.43;;;14.80;99.90;;;;;;5064347;28;20526;-50
2022/09/19 11:20:27;;;;;;;0.85;0.70;;;14.80;99.90;;;;;;5061851;28;20053;-51
2022/09/19 11:23:21;;;;;;;8.35;6.20;;;14.90;99.90;;;;;;5058841;28;20595;-50
2022/09/19 11:26:04;;;;;;;3.33;2.35;;;15.00;99.90;;;;;;5023036;28;20038;-50
2022/09/19 11:28:43;;;;;;;4.07;1.48;;;15.20;99.90;;;;;;5020813;28;20037;-50
2022/09/19 11:31:33;;;;;;;0.70;0.70;;;15.10;99.90;;;;;;5013635;28;20044;-50
2022/09/19 11:34:11;;;;;;;0.80;0.65;;;15.00;99.90;;;;;;5025550;28;20037;-50
2022/09/19 11:36:59;;;;;;;1.30;0.80;;;14.80;99.90;;;;;;4996734;28;20034;-50
2022/09/19 11:39:30;;;;;;;1.25;0.90;;;14.90;99.90;;;;;;5018265;28;20038;-51
2022/09/19 11:42:28;;;;;;;1.77;0.98;;;14.90;99.90;;;;;;5009232;28;20049;-51
2022/09/19 11:45:17;;;;;;;1.30;1.00;;;14.90;99.90;;;;;;4957593;28;20039;-51
2022/09/19 11:47:50;;;;;;;1.50;1.00;;;14.60;99.90;;;;;;4961793;28;20171;-52
2022/09/19 11:50:39;;;;;;;1.80;1.42;;;14.60;99.90;;;;;;4979534;28;20046;-51
2022/09/19 11:53:31;;;;;;;3.60;1.70;;;14.80;99.90;;;;;;4986386;28;20038;-50
2022/09/19 11:56:26;;;;;;;2.90;2.00;;;14.80;99.90;;;;;;4988895;28;20054;-50
2022/09/19 14:12:35;;;;;;;6.45;4.50;;;14.20;99.90;;;;;;5049834;28;20056;-50
2022/09/19 14:15:03;;;;;;;6.38;4.93;;;14.00;99.90;;;;;;5059839;28;20091;-51
2022/09/19 14:17:33;;;;;;;7.10;3.85;;;14.00;99.90;;;;;;5062284;28;20052;-49
2022/09/19 14:20:05;;;;;;;7.95;4.63;;;13.90;99.90;;;;;;5061489;28;20045;-50
2022/09/19 14:22:34;;;;;;;6.15;3.97;;;14.00;99.90;;;;;;5064115;28;20041;-50
2022/09/19 14:25:18;;;;;;;6.90;3.97;;;14.00;99.90;;;;;;5058382;28;20048;-49
2022/09/19 14:28:02;;;;;;;7.57;5.50;;;13.90;99.90;;;;;;5063702;28;20051;-49
2022/09/19 14:31:06;;;;;;;8.20;5.85;;;14.00;99.90;;;;;;5064434;28;20077;-50
2022/09/19 14:33:41;;;;;;;9.07;6.35;;;14.10;99.90;;;;;;5061186;28;20029;-49
2022/09/19 14:36:39;;;;;;;9.52;6.85;;;14.10;99.90;;;;;;5044865;28;20756;-49
2022/09/19 14:39:33;;;;;;;7.28;5.13;;;14.10;99.90;;;;;;5064375;28;20079;-50
2022/09/19 14:42:37;;;;;;;8.73;6.38;;;14.00;99.90;;;;;;5060780;28;20036;-50
2022/09/19 14:45:09;;;;;;;8.20;6.15;;;13.90;99.90;;;;;;5065382;28;20123;-49
2022/09/19 14:47:50;;;;;;;7.88;6.25;;;14.00;99.90;;;;;;5068874;28;20391;-49
2022/09/19 14:50:36;;;;;;;7.22;5.60;;;14.00;99.90;;;;;;5058456;28;20029;-49
2022/09/19 14:53:11;;;;;;;10.95;6.65;;;13.90;99.90;;;;;;5066392;28;20498;-49
2022/09/19 14:55:48;;;;;;;10.18;6.78;;;13.90;99.90;;;;;;5061080;28;20503;-49
2022/09/19 14:58:31;;;;;;;8.13;6.07;;;14.00;99.90;;;;;;5064342;28;20055;-49
2022/09/19 15:01:15;;;;;;;9.35;5.50;;;14.00;99.90;;;;;;5063017;28;20020;-50
2022/09/19 15:04:08;;;;;;;7.05;4.95;;;14.00;99.90;;;;;;5063655;28;20024;-50
2022/09/19 15:06:52;;;;;;;10.77;5.85;;;14.00;99.90;;;;;;5064912;28;20078;-50
2022/09/19 15:09:19;;;;;;;9.48;6.13;;;14.00;99.90;;;;;;5070304;28;20041;-50
2022/09/19 15:11:55;;;;;;;9.50;6.40;;;14.10;99.90;;;;;;5069863;28;20491;-50
2022/09/19 15:14:22;;;;;;;10.05;6.95;;;14.20;99.90;;;;;;5070652;28;20074;-50
2022/09/19 15:17:07;;;;;;;15.50;6.25;;;14.20;99.90;;;;;;5066267;28;20025;-50
2022/09/19 15:19:35;;;;;;;9.43;5.85;;;14.10;99.90;;;;;;5070750;28;20049;-50
2022/09/19 15:22:00;;;;;;;9.65;5.63;;;14.30;99.90;;;;;;5063611;28;20033;-50
2022/09/19 15:24:27;;;;;;;7.63;5.22;;;14.30;99.90;;;;;;5066139;28;20097;-50
2022/09/19 15:26:57;;;;;;;7.35;5.10;;;14.40;99.90;;;;;;5071192;28;20025;-49
2022/09/19 15:29:38;;;;;;;7.07;4.78;;;14.50;99.90;;;;;;5062945;28;20439;-49
2022/09/19 15:32:31;;;;;;;6.97;4.90;;;14.50;99.90;;;;;;5071125;28;20055;-49
2022/09/19 15:34:57;;;;;;;7.40;4.70;;;14.70;99.90;;;;;;5011736;28;20038;-50
2022/09/19 15:37:26;;;;;;;8.55;4.72;;;14.60;99.90;;;;;;5012513;28;20065;-50
2022/09/19 15:39:52;;;;;;;11.00;5.95;;;14.70;99.90;;;;;;5007787;28;20061;-49
2022/09/19 15:42:18;;;;;;;8.57;5.85;;;14.70;99.90;;;;;;5004480;28;20049;-49
2022/09/19 15:44:48;;;;;;;8.35;5.60;;;14.60;99.90;;;;;;5009957;28;20077;-50
2022/09/19 15:47:18;;;;;;;10.00;5.32;;;14.60;99.90;;;;;;5010733;28;20100;-50
2022/09/19 15:49:48;;;;;;;9.07;6.45;;;14.30;99.90;;;;;;5008068;28;20424;-49
2022/09/19 15:52:29;;;;;;;9.07;6.28;;;14.30;99.90;;;;;;5012056;28;20048;-50
2022/09/19 15:54:55;;;;;;;8.43;6.03;;;14.30;99.90;;;;;;5011975;28;20030;-50
2022/09/19 15:57:50;;;;;;;11.07;6.72;;;14.10;99.90;;;;;;5012354;28;20038;-50
2022/09/19 16:00:21;;;;;;;11.55;6.57;;;14.20;99.90;;;;;;5007325;28;20069;-50
2022/09/19 16:02:50;;;;;;;11.05;7.25;;;14.20;99.90;;;;;;5006289;28;20033;-51
2022/09/19 16:05:21;;;;;;;10.75;6.88;;;14.30;99.90;;;;;;5005024;28;20030;-50
2022/09/19 16:10:41;;;;;;;11.65;7.07;;;14.60;99.90;;;;;;4981130;28;20452;-51
2022/09/19 16:13:32;;;;;;;10.35;6.70;;;14.60;99.90;;;;;;5068521;28;20045;-51
2022/09/19 16:15:59;;;;;;;9.75;6.30;;;14.60;99.90;;;;;;5067432;28;20426;-49
2022/09/19 16:18:26;;;;;;;10.27;6.57;;;14.60;99.90;;;;;;5067337;28;20035;-50